Time;durP1;ratioP1;P1;durP2;ratioP2;P2;SDS_P1;SDS_P2;PMS_P1;PMS_P2;Temp;Humidity;BMP_temperature;BMP_pressure;BME280_temperature;BME280_humidity;BME280_pressure;Samples;Min_cycle;Max_cycle;Signal;HPM_P1;HPM_P2
2022/01/09 00:00:19;;;;;;;2.47;2.10;;;21.60;53.70;;;;;;5095187;28;20075;-79
2022/01/09 00:02:47;;;;;;;1.73;1.63;;;21.80;53.60;;;;;;5095384;28;20063;-79
2022/01/09 00:05:14;;;;;;;1.58;1.48;;;21.60;53.70;;;;;;5096183;28;20064;-79
2022/01/09 00:07:40;;;;;;;2.13;1.92;;;21.70;53.80;;;;;;5095075;28;20040;-79
2022/01/09 00:10:08;;;;;;;2.17;1.90;;;21.70;53.70;;;;;;5093989;28;20063;-79
2022/01/09 00:12:34;;;;;;;2.38;1.70;;;21.70;53.70;;;;;;5087994;28;20043;-79
2022/01/09 00:15:01;;;;;;;1.85;1.75;;;21.70;53.70;;;;;;5094942;28;20062;-79
2022/01/09 00:17:27;;;;;;;5.22;1.77;;;21.80;53.60;;;;;;5095056;28;20028;-79
2022/01/09 00:19:53;;;;;;;2.83;1.77;;;21.70;53.70;;;;;;5094818;28;20039;-79
2022/01/09 00:22:28;;;;;;;1.92;1.80;;;21.70;53.70;;;;;;5094624;28;20028;-78
2022/01/09 00:24:54;;;;;;;2.50;2.00;;;21.70;53.70;;;;;;5096386;28;20067;-79
2022/01/09 00:27:20;;;;;;;2.45;1.95;;;21.70;53.80;;;;;;5119711;28;20032;-79
2022/01/09 00:29:47;;;;;;;4.03;1.63;;;21.60;53.70;;;;;;5096242;28;20052;-79
2022/01/09 00:32:13;;;;;;;2.20;1.90;;;21.60;53.90;;;;;;5096032;28;20055;-79
2022/01/09 00:34:41;;;;;;;2.35;1.80;;;21.40;53.80;;;;;;5095996;28;20032;-79
2022/01/09 00:37:07;;;;;;;1.80;1.70;;;21.50;54.00;;;;;;5096160;28;20036;-78
2022/01/09 00:39:33;;;;;;;1.83;1.73;;;21.40;53.90;;;;;;5097414;28;20058;-79
2022/01/09 00:41:59;;;;;;;2.33;2.13;;;21.40;53.80;;;;;;5095863;28;20075;-79
2022/01/09 00:44:26;;;;;;;2.17;2.03;;;21.50;54.00;;;;;;5096041;28;20036;-79
2022/01/09 00:46:56;;;;;;;2.88;2.03;;;21.50;53.80;;;;;;5110264;28;20044;-78
2022/01/09 00:49:23;;;;;;;2.10;1.98;;;21.50;53.70;;;;;;5116660;28;20043;-79
2022/01/09 00:51:49;;;;;;;2.25;2.05;;;21.40;53.60;;;;;;5116781;28;20074;-79
2022/01/09 00:54:16;;;;;;;2.45;2.25;;;21.40;53.70;;;;;;5101664;28;20033;-79
2022/01/09 00:56:42;;;;;;;2.55;2.35;;;21.40;53.80;;;;;;5095586;28;20064;-79
2022/01/09 00:59:08;;;;;;;2.45;1.67;;;21.40;53.80;;;;;;5061873;28;20044;-79
2022/01/09 01:01:34;;;;;;;2.72;2.15;;;21.40;53.90;;;;;;5094517;28;20080;-78
2022/01/09 01:04:00;;;;;;;1.70;1.60;;;21.50;54.00;;;;;;5096306;28;20051;-79
2022/01/09 01:06:26;;;;;;;2.47;1.90;;;21.40;53.80;;;;;;5096410;28;20041;-79
2022/01/09 01:08:52;;;;;;;4.18;2.00;;;21.70;53.90;;;;;;5095688;28;20048;-77
2022/01/09 01:11:20;;;;;;;1.95;1.80;;;21.40;53.60;;;;;;5095892;28;20052;-78
2022/01/09 01:13:46;;;;;;;2.47;1.90;;;21.40;53.70;;;;;;5096259;28;20096;-79
2022/01/09 01:16:12;;;;;;;2.10;1.90;;;21.40;53.60;;;;;;5096988;28;20064;-79
2022/01/09 01:18:43;;;;;;;1.85;1.75;;;21.40;53.70;;;;;;5095987;28;20119;-79
2022/01/09 01:21:09;;;;;;;2.13;1.52;;;21.50;53.60;;;;;;5098139;28;20040;-79
2022/01/09 01:23:35;;;;;;;2.55;1.63;;;21.60;53.30;;;;;;5101054;28;20066;-78
2022/01/09 01:26:02;;;;;;;2.25;2.00;;;21.70;52.80;;;;;;5099304;28;20040;-79
2022/01/09 01:28:29;;;;;;;1.95;1.85;;;21.80;52.50;;;;;;5084782;28;20037;-78
2022/01/09 01:30:56;;;;;;;3.30;2.53;;;21.80;52.40;;;;;;5099446;28;20037;-78
2022/01/09 01:33:22;;;;;;;2.28;1.90;;;21.70;52.60;;;;;;5098395;28;20062;-78
2022/01/09 01:35:49;;;;;;;3.33;2.03;;;21.70;52.90;;;;;;5099495;28;20033;-78
2022/01/09 01:38:15;;;;;;;1.92;1.83;;;21.60;53.00;;;;;;5099624;28;20108;-79
2022/01/09 01:40:41;;;;;;;1.80;1.70;;;21.60;53.00;;;;;;5100453;28;20078;-78
2022/01/09 01:43:08;;;;;;;3.05;2.00;;;21.50;53.10;;;;;;5099352;28;20117;-78
2022/01/09 01:45:34;;;;;;;1.85;1.60;;;21.50;53.20;;;;;;5086372;28;20032;-78
2022/01/09 01:48:05;;;;;;;1.98;1.75;;;21.50;53.40;;;;;;5120018;28;20044;-78
2022/01/09 01:50:37;;;;;;;1.80;1.70;;;21.50;53.40;;;;;;5103853;28;20061;-79
2022/01/09 01:53:14;;;;;;;2.50;2.03;;;21.40;53.40;;;;;;5099348;28;20040;-78
2022/01/09 01:55:41;;;;;;;2.65;2.25;;;21.40;53.40;;;;;;5098923;28;20089;-79
2022/01/09 01:58:12;;;;;;;2.90;2.00;;;21.30;53.20;;;;;;5099068;28;20108;-78
2022/01/09 02:00:42;;;;;;;2.22;1.75;;;21.30;53.60;;;;;;5098753;28;20032;-79
2022/01/09 02:03:09;;;;;;;2.58;1.75;;;21.50;53.50;;;;;;5099375;28;20040;-78
2022/01/09 02:05:36;;;;;;;4.93;2.10;;;21.40;53.30;;;;;;5099115;28;20049;-78
2022/01/09 02:08:03;;;;;;;2.47;1.98;;;21.40;53.20;;;;;;5098883;28;20108;-78
2022/01/09 02:10:30;;;;;;;2.17;2.00;;;21.50;53.40;;;;;;5098383;28;20059;-79
2022/01/09 02:12:57;;;;;;;2.40;1.80;;;21.60;53.30;;;;;;5099024;28;20044;-78
2022/01/09 02:15:28;;;;;;;2.50;1.95;;;21.60;53.40;;;;;;5097326;28;20064;-78
2022/01/09 02:17:54;;;;;;;2.90;2.10;;;21.50;53.30;;;;;;5097275;28;20051;-79
2022/01/09 02:20:20;;;;;;;2.95;2.33;;;21.50;53.10;;;;;;5113777;28;20034;-79
2022/01/09 02:22:46;;;;;;;1.98;1.40;;;21.60;53.10;;;;;;5119588;28;20104;-78
2022/01/09 02:25:14;;;;;;;2.25;2.05;;;21.60;53.00;;;;;;5108425;28;20043;-79
2022/01/09 02:27:40;;;;;;;2.40;1.90;;;21.60;52.90;;;;;;5092423;28;20078;-79
2022/01/09 02:30:07;;;;;;;2.17;1.95;;;21.60;53.10;;;;;;5095638;28;20086;-78
2022/01/09 02:32:33;;;;;;;4.57;2.17;;;21.50;53.00;;;;;;5091892;28;20040;-79
2022/01/09 02:35:01;;;;;;;2.53;1.92;;;21.50;53.10;;;;;;5098020;28;20037;-78
2022/01/09 02:37:27;;;;;;;2.60;2.40;;;21.50;53.30;;;;;;5098554;28;20070;-78
2022/01/09 02:39:53;;;;;;;2.67;2.13;;;21.40;53.30;;;;;;5098295;28;20104;-78
2022/01/09 02:42:21;;;;;;;2.00;1.85;;;21.40;53.30;;;;;;5098179;28;20074;-79
2022/01/09 02:44:47;;;;;;;2.22;2.03;;;21.40;53.50;;;;;;5098590;28;20067;-78
2022/01/09 02:47:14;;;;;;;2.60;1.85;;;21.20;53.50;;;;;;5115831;28;20062;-79
2022/01/09 02:49:44;;;;;;;3.08;2.35;;;21.10;53.50;;;;;;5100128;28;20569;-79
2022/01/09 02:52:23;;;;;;;2.72;1.60;;;21.20;53.50;;;;;;5097587;28;20036;-79
2022/01/09 02:57:32;;;;;;;1.90;1.70;;;21.20;53.50;;;;;;5104150;28;20032;-78
2022/01/09 02:59:58;;;;;;;2.13;1.98;;;21.30;53.20;;;;;;5097418;28;20040;-79
2022/01/09 03:02:24;;;;;;;2.08;1.98;;;21.50;52.90;;;;;;5098057;28;20036;-78
2022/01/09 03:04:50;;;;;;;2.53;2.17;;;21.60;52.80;;;;;;5098012;28;20067;-78
2022/01/09 03:07:17;;;;;;;4.65;1.98;;;21.50;52.80;;;;;;5097708;28;20051;-79
2022/01/09 03:09:43;;;;;;;3.67;2.15;;;21.50;53.00;;;;;;5097168;28;20062;-79
2022/01/09 03:12:11;;;;;;;3.00;1.92;;;21.40;53.00;;;;;;5096883;28;20048;-78
2022/01/09 03:14:38;;;;;;;4.57;2.03;;;21.40;52.90;;;;;;5097815;28;20127;-78
2022/01/09 03:17:04;;;;;;;2.50;2.00;;;21.40;53.10;;;;;;5097691;28;20051;-78
2022/01/09 03:19:30;;;;;;;2.45;2.08;;;21.40;53.10;;;;;;5097526;28;20040;-79
2022/01/09 03:21:56;;;;;;;3.35;2.40;;;21.30;53.10;;;;;;5111936;28;20063;-78
2022/01/09 03:24:23;;;;;;;2.22;2.03;;;21.30;53.10;;;;;;5105738;28;20214;-78
2022/01/09 03:26:49;;;;;;;3.10;2.80;;;21.40;53.20;;;;;;5075607;28;20040;-78
2022/01/09 03:29:15;;;;;;;3.08;2.47;;;21.20;53.10;;;;;;5097610;28;20040;-79
2022/01/09 03:31:41;;;;;;;4.07;2.30;;;21.20;53.10;;;;;;5094898;28;20047;-78
2022/01/09 03:34:08;;;;;;;2.22;2.03;;;21.20;53.20;;;;;;5092947;28;20039;-78
2022/01/09 03:36:34;;;;;;;3.03;2.15;;;21.20;53.10;;;;;;5096276;28;20059;-78
2022/01/09 03:39:00;;;;;;;5.50;2.38;;;21.20;53.10;;;;;;5090021;28;20084;-78
2022/01/09 03:41:26;;;;;;;3.08;2.58;;;21.10;53.10;;;;;;5080639;28;20105;-79
2022/01/09 03:43:53;;;;;;;5.32;1.80;;;21.20;53.00;;;;;;5095842;28;20071;-79
2022/01/09 03:46:19;;;;;;;2.08;1.95;;;21.20;53.30;;;;;;5095386;28;20033;-79
2022/01/09 03:48:45;;;;;;;2.10;1.90;;;21.30;52.90;;;;;;5078789;28;20037;-78
2022/01/09 03:51:11;;;;;;;2.38;1.65;;;21.30;52.90;;;;;;5077039;28;20067;-78
2022/01/09 03:53:39;;;;;;;3.45;1.90;;;21.50;52.60;;;;;;5078260;28;20493;-79
2022/01/09 03:56:05;;;;;;;3.28;1.88;;;21.50;52.30;;;;;;5096310;28;20032;-79
2022/01/09 03:58:31;;;;;;;4.88;2.60;;;21.50;52.30;;;;;;5077849;28;20032;-79
2022/01/09 04:00:57;;;;;;;4.28;2.63;;;21.40;52.30;;;;;;5096250;28;20046;-77
2022/01/09 04:03:24;;;;;;;2.90;2.08;;;21.40;52.40;;;;;;5096610;28;20032;-78
2022/01/09 04:05:50;;;;;;;3.22;2.42;;;21.50;52.40;;;;;;5103195;28;20036;-78
2022/01/09 04:08:18;;;;;;;3.53;2.40;;;21.40;52.70;;;;;;5094523;28;20071;-78
2022/01/09 04:10:44;;;;;;;2.35;1.90;;;21.40;52.80;;;;;;5096812;28;20040;-78
2022/01/09 04:13:12;;;;;;;3.05;1.92;;;21.30;53.10;;;;;;5096727;28;20048;-77
2022/01/09 04:15:45;;;;;;;2.25;2.03;;;21.40;53.00;;;;;;5082967;28;20048;-77
2022/01/09 04:18:12;;;;;;;2.35;1.40;;;21.30;53.10;;;;;;5096145;28;20036;-78
2022/01/09 04:20:38;;;;;;;2.33;2.13;;;21.40;53.30;;;;;;5096424;28;20040;-78
2022/01/09 04:23:04;;;;;;;3.80;2.17;;;21.40;53.10;;;;;;5096607;28;20052;-78
2022/01/09 04:25:31;;;;;;;2.38;2.10;;;21.40;53.20;;;;;;5096818;28;20051;-78
2022/01/09 04:27:57;;;;;;;2.83;2.55;;;21.50;53.10;;;;;;5095754;28;20046;-78
2022/01/09 04:30:23;;;;;;;3.08;2.47;;;21.60;53.10;;;;;;5096381;28;20120;-78
2022/01/09 04:32:49;;;;;;;4.20;2.80;;;21.60;53.10;;;;;;5079244;28;20040;-78
2022/01/09 04:35:16;;;;;;;4.93;2.88;;;21.50;53.10;;;;;;5096309;28;20059;-78
2022/01/09 04:37:42;;;;;;;3.28;2.45;;;21.40;53.50;;;;;;5096559;28;20036;-77
2022/01/09 04:40:12;;;;;;;3.50;2.55;;;21.30;53.70;;;;;;5116750;28;20036;-77
2022/01/09 04:42:43;;;;;;;5.18;2.78;;;21.20;53.90;;;;;;5097267;28;20032;-78
2022/01/09 04:45:13;;;;;;;3.83;2.65;;;21.20;53.90;;;;;;5076180;28;20041;-78
2022/01/09 04:47:43;;;;;;;5.22;1.95;;;21.20;54.10;;;;;;5095160;28;20071;-78
2022/01/09 04:50:13;;;;;;;3.03;2.20;;;21.30;54.00;;;;;;5096763;28;20047;-77
2022/01/09 04:52:40;;;;;;;5.20;2.60;;;21.20;53.80;;;;;;5096691;28;20051;-77
2022/01/09 04:55:07;;;;;;;2.85;2.50;;;21.30;53.80;;;;;;5103723;28;20033;-78
2022/01/09 04:57:33;;;;;;;3.92;2.35;;;21.20;53.90;;;;;;5096491;28;20067;-78
2022/01/09 04:59:59;;;;;;;2.53;1.98;;;21.20;54.00;;;;;;5096526;28;20104;-77
2022/01/09 05:02:27;;;;;;;4.90;2.88;;;21.00;54.20;;;;;;5106434;28;20070;-78
2022/01/09 05:04:53;;;;;;;3.22;2.42;;;21.10;54.50;;;;;;5096214;28;20044;-77
2022/01/09 05:07:20;;;;;;;2.80;2.47;;;21.10;54.50;;;;;;5095845;28;20046;-78
2022/01/09 05:09:46;;;;;;;5.57;2.38;;;21.10;54.50;;;;;;5095317;28;20045;-77
2022/01/09 05:12:12;;;;;;;2.88;2.42;;;21.10;54.40;;;;;;5095347;28;20048;-78
2022/01/09 05:14:38;;;;;;;3.63;2.58;;;21.10;54.30;;;;;;5095764;28;20040;-77
2022/01/09 05:17:04;;;;;;;3.22;2.42;;;21.20;54.30;;;;;;5094470;28;20074;-78
2022/01/09 05:19:33;;;;;;;5.90;2.58;;;21.10;54.40;;;;;;5095135;28;20036;-77
2022/01/09 05:22:00;;;;;;;3.97;2.08;;;21.10;54.30;;;;;;5095271;28;20047;-78
2022/01/09 05:24:27;;;;;;;5.72;2.85;;;21.10;54.30;;;;;;5094251;28;20040;-77
2022/01/09 05:26:54;;;;;;;4.47;2.50;;;21.20;54.00;;;;;;5094958;28;20071;-78
2022/01/09 05:29:21;;;;;;;3.75;2.10;;;21.10;53.90;;;;;;5095278;28;20060;-78
2022/01/09 05:31:50;;;;;;;3.63;2.25;;;21.30;54.00;;;;;;5094262;28;20048;-78
2022/01/09 05:34:17;;;;;;;2.45;2.25;;;21.30;53.90;;;;;;5095578;28;20087;-77
2022/01/09 05:36:43;;;;;;;5.07;2.25;;;21.20;53.60;;;;;;5095437;28;20099;-78
2022/01/09 05:39:10;;;;;;;3.25;2.10;;;21.30;53.60;;;;;;5083181;28;20068;-78
2022/01/09 05:41:37;;;;;;;3.15;2.38;;;21.40;53.40;;;;;;5094443;28;20064;-78
2022/01/09 05:44:04;;;;;;;5.13;3.15;;;21.40;53.30;;;;;;5077032;28;20120;-78
2022/01/09 05:46:30;;;;;;;4.38;2.83;;;21.50;53.30;;;;;;5095045;28;20040;-78
2022/01/09 05:48:56;;;;;;;6.25;2.85;;;21.40;53.70;;;;;;5094436;28;20044;-77
2022/01/09 05:51:22;;;;;;;3.92;2.63;;;21.40;54.00;;;;;;5094166;28;20051;-78
2022/01/09 05:53:48;;;;;;;3.42;2.30;;;21.30;54.50;;;;;;5094758;28;20036;-79
2022/01/09 05:56:14;;;;;;;4.30;2.67;;;21.10;54.70;;;;;;5093730;28;20047;-78
2022/01/09 05:58:40;;;;;;;5.10;2.70;;;21.20;54.80;;;;;;5100999;28;20036;-78
2022/01/09 06:01:07;;;;;;;4.15;2.30;;;21.20;54.60;;;;;;5081953;28;20056;-79
2022/01/09 06:03:35;;;;;;;3.22;2.55;;;21.20;54.50;;;;;;5094878;28;20082;-78
2022/01/09 06:06:01;;;;;;;2.72;2.53;;;21.20;54.30;;;;;;5094584;28;20073;-77
2022/01/09 06:08:27;;;;;;;4.13;3.00;;;21.30;54.40;;;;;;5097280;28;20043;-78
2022/01/09 06:10:53;;;;;;;3.95;2.97;;;21.30;53.90;;;;;;5098108;28;20062;-80
2022/01/09 06:13:20;;;;;;;2.03;1.67;;;21.20;53.00;;;;;;5102439;28;20039;-76
2022/01/09 06:15:46;;;;;;;1.15;1.05;;;21.10;45.30;;;;;;5097910;28;20039;-77
2022/01/09 06:18:12;;;;;;;1.67;1.40;;;21.20;44.20;;;;;;5098141;28;20052;-77
2022/01/09 06:20:39;;;;;;;2.00;1.85;;;21.10;43.30;;;;;;5096921;28;20028;-77
2022/01/09 06:23:06;;;;;;;1.58;1.48;;;21.20;42.50;;;;;;5097518;28;20144;-77
2022/01/09 06:25:32;;;;;;;1.30;1.20;;;21.30;41.90;;;;;;5097939;28;20041;-77
2022/01/09 06:27:58;;;;;;;1.95;1.40;;;21.30;41.80;;;;;;5101125;28;20120;-78
2022/01/09 06:30:25;;;;;;;4.47;1.83;;;21.40;42.20;;;;;;5097746;28;20037;-78
2022/01/09 06:32:51;;;;;;;3.03;1.98;;;21.50;43.20;;;;;;5098646;28;20034;-81
2022/01/09 06:35:17;;;;;;;8.75;2.28;;;21.60;41.20;;;;;;5084112;28;20063;-80
2022/01/09 06:37:43;;;;;;;1.50;1.17;;;21.60;40.40;;;;;;5097311;28;20044;-77
2022/01/09 06:40:10;;;;;;;2.40;2.00;;;21.60;40.80;;;;;;5097581;28;20037;-75
2022/01/09 06:42:36;;;;;;;3.55;2.50;;;21.70;39.40;;;;;;5101057;28;20082;-75
2022/01/09 06:45:02;;;;;;;3.97;2.22;;;21.70;38.70;;;;;;5097921;28;20088;-75
2022/01/09 06:47:28;;;;;;;3.72;2.13;;;21.70;38.50;;;;;;5098144;28;20131;-76
2022/01/09 06:49:55;;;;;;;4.55;2.65;;;21.60;39.00;;;;;;5097931;28;20090;-77
2022/01/09 06:52:21;;;;;;;4.50;3.30;;;21.70;40.20;;;;;;5112968;28;20104;-78
2022/01/09 06:54:47;;;;;;;4.68;3.47;;;21.70;40.80;;;;;;5099893;28;20035;-79
2022/01/09 06:57:13;;;;;;;6.10;2.90;;;21.70;41.70;;;;;;5113472;28;20043;-76
2022/01/09 06:59:39;;;;;;;5.30;4.30;;;21.80;40.60;;;;;;5118060;28;20051;-78
2022/01/09 07:02:06;;;;;;;6.45;4.47;;;21.70;42.00;;;;;;5118105;28;20036;-79
2022/01/09 07:04:32;;;;;;;8.65;4.50;;;21.70;41.30;;;;;;5117869;28;20096;-77
2022/01/09 07:06:58;;;;;;;7.63;3.63;;;21.70;42.50;;;;;;5104614;28;20044;-76
2022/01/09 07:09:24;;;;;;;5.22;3.70;;;21.80;41.10;;;;;;5097824;28;20044;-76
2022/01/09 07:11:50;;;;;;;5.38;3.90;;;21.70;49.20;;;;;;5097653;28;20036;-77
2022/01/09 07:14:16;;;;;;;6.47;3.45;;;21.80;53.70;;;;;;5079355;28;20036;-77
2022/01/09 07:16:42;;;;;;;7.13;3.90;;;21.90;54.50;;;;;;5096540;28;20036;-77
2022/01/09 07:19:08;;;;;;;5.68;3.80;;;21.80;54.80;;;;;;5095057;28;20060;-76
2022/01/09 07:21:34;;;;;;;5.78;4.45;;;21.70;55.60;;;;;;5095037;28;20045;-75
2022/01/09 07:24:01;;;;;;;8.45;4.75;;;21.80;56.00;;;;;;5095683;28;20113;-76
2022/01/09 07:26:27;;;;;;;7.28;4.47;;;21.70;56.90;;;;;;5096834;28;20044;-76
2022/01/09 07:28:53;;;;;;;4.82;4.32;;;21.70;58.40;;;;;;5096044;28;20036;-74
2022/01/09 07:31:19;;;;;;;6.22;4.43;;;21.60;62.30;;;;;;5096391;28;20075;-78
2022/01/09 07:33:46;;;;;;;5.95;4.40;;;21.50;62.00;;;;;;5079147;28;21702;-80
2022/01/09 07:36:14;;;;;;;7.38;4.43;;;21.40;61.80;;;;;;5079308;28;20029;-80
2022/01/09 07:38:40;;;;;;;5.85;4.38;;;21.40;61.40;;;;;;5097234;28;20096;-80
2022/01/09 07:41:06;;;;;;;5.40;4.13;;;21.30;61.70;;;;;;5095366;28;20064;-79
2022/01/09 07:43:33;;;;;;;4.65;4.10;;;21.20;60.80;;;;;;5096397;28;20032;-76
2022/01/09 07:45:59;;;;;;;7.85;4.07;;;21.20;61.90;;;;;;5096240;28;20074;-77
2022/01/09 07:48:25;;;;;;;5.82;4.28;;;21.30;61.90;;;;;;5096408;28;20036;-81
2022/01/09 07:50:51;;;;;;;5.40;4.30;;;21.20;62.00;;;;;;5096314;28;20059;-81
2022/01/09 07:53:23;;;;;;;5.60;4.28;;;21.20;62.20;;;;;;5096503;28;20044;-79
2022/01/09 07:55:52;;;;;;;5.20;3.95;;;21.20;62.60;;;;;;5096318;28;20048;-76
2022/01/09 07:58:19;;;;;;;7.15;4.80;;;21.20;62.50;;;;;;5093894;28;20033;-75
2022/01/09 08:00:45;;;;;;;6.00;4.45;;;21.20;62.40;;;;;;5094189;28;20096;-73
2022/01/09 08:03:12;;;;;;;5.38;4.20;;;21.20;62.30;;;;;;5093871;28;20041;-77
2022/01/09 08:05:39;;;;;;;8.48;4.55;;;21.20;61.90;;;;;;5094904;28;20060;-78
2022/01/09 08:08:06;;;;;;;7.25;4.75;;;21.20;61.40;;;;;;5094646;28;20096;-80
2022/01/09 08:10:33;;;;;;;5.03;3.28;;;21.10;60.90;;;;;;5094833;28;20045;-76
2022/01/09 08:13:00;;;;;;;4.28;2.72;;;21.20;45.90;;;;;;5093631;28;20032;-77
2022/01/09 08:15:28;;;;;;;3.00;2.28;;;21.50;43.40;;;;;;5076658;28;20093;-75
2022/01/09 08:17:54;;;;;;;5.45;2.88;;;21.60;44.30;;;;;;5096408;28;20033;-78
2022/01/09 08:20:20;;;;;;;4.60;3.20;;;21.70;44.80;;;;;;5094175;28;20075;-74
2022/01/09 08:22:46;;;;;;;1.85;1.63;;;21.80;44.10;;;;;;5095368;28;20166;-75
2022/01/09 08:25:14;;;;;;;2.50;1.33;;;21.90;45.10;;;;;;5093221;28;20047;-74
2022/01/09 08:27:43;;;;;;;0.95;0.95;;;22.00;54.80;;;;;;5093260;28;20056;-75
2022/01/09 08:30:11;;;;;;;0.40;0.40;;;22.30;55.00;;;;;;5092887;28;20053;-73
2022/01/09 08:32:38;;;;;;;1.73;1.00;;;22.30;54.50;;;;;;5093553;28;20068;-75
2022/01/09 08:35:07;;;;;;;0.75;0.75;;;22.20;53.90;;;;;;5070546;28;20028;-74
2022/01/09 08:37:33;;;;;;;1.48;1.08;;;22.40;53.40;;;;;;5095016;28;20074;-74
2022/01/09 08:39:59;;;;;;;2.80;1.50;;;22.40;53.00;;;;;;5094751;28;20041;-74
2022/01/09 08:42:25;;;;;;;1.80;1.48;;;22.50;52.50;;;;;;5077646;28;20099;-73
2022/01/09 08:44:52;;;;;;;4.97;1.17;;;22.50;52.00;;;;;;5110485;28;20040;-73
2022/01/09 08:47:18;;;;;;;4.05;1.58;;;22.50;51.60;;;;;;5094295;28;20096;-74
2022/01/09 08:49:44;;;;;;;2.17;1.38;;;22.50;51.20;;;;;;5095172;28;20040;-74
2022/01/09 08:52:10;;;;;;;1.75;1.60;;;22.60;50.90;;;;;;5095400;28;20105;-73
2022/01/09 08:54:36;;;;;;;3.75;1.60;;;22.60;50.60;;;;;;5095357;28;20032;-73
2022/01/09 08:57:03;;;;;;;3.22;2.47;;;22.60;50.80;;;;;;5094650;28;20040;-74
2022/01/09 08:59:29;;;;;;;1.40;1.13;;;22.60;50.20;;;;;;5094809;28;20051;-73
2022/01/09 09:01:56;;;;;;;3.60;1.33;;;22.60;49.10;;;;;;5095182;28;20044;-74
2022/01/09 09:04:22;;;;;;;2.47;1.85;;;22.60;48.20;;;;;;5094876;28;20037;-74
2022/01/09 09:06:48;;;;;;;1.08;0.98;;;22.70;47.80;;;;;;5095048;28;20045;-74
2022/01/09 09:09:14;;;;;;;2.03;1.42;;;22.70;47.40;;;;;;5077288;28;20047;-76
2022/01/09 09:11:41;;;;;;;1.35;1.25;;;22.60;46.90;;;;;;5093930;28;20055;-74
2022/01/09 09:14:08;;;;;;;0.85;0.55;;;22.60;46.40;;;;;;5095391;28;20060;-75
2022/01/09 09:16:34;;;;;;;1.92;1.77;;;22.60;46.10;;;;;;5094631;28;20107;-75
2022/01/09 09:19:00;;;;;;;1.55;1.45;;;22.70;45.90;;;;;;5094731;28;20033;-77
2022/01/09 09:21:27;;;;;;;1.75;1.40;;;22.60;45.70;;;;;;5093804;28;20048;-75
2022/01/09 09:23:54;;;;;;;1.65;1.55;;;22.50;45.50;;;;;;5077471;28;20052;-74
2022/01/09 09:26:21;;;;;;;4.13;3.53;;;22.60;45.00;;;;;;5094461;28;20044;-75
2022/01/09 09:28:47;;;;;;;4.00;3.60;;;22.60;43.60;;;;;;5093680;28;20036;-75
2022/01/09 09:31:14;;;;;;;5.32;4.00;;;22.70;38.30;;;;;;5094615;28;20064;-74
2022/01/09 09:33:41;;;;;;;4.68;3.58;;;22.70;38.20;;;;;;5094502;28;20044;-75
2022/01/09 09:36:07;;;;;;;7.63;4.45;;;22.80;37.60;;;;;;5094109;28;20062;-74
2022/01/09 09:38:33;;;;;;;5.80;3.70;;;22.70;36.70;;;;;;5094022;28;20028;-74
2022/01/09 09:40:59;;;;;;;5.90;3.75;;;22.80;36.30;;;;;;5093956;28;20044;-75
2022/01/09 09:43:26;;;;;;;6.68;4.07;;;22.80;36.30;;;;;;5097625;28;20043;-74
2022/01/09 09:45:53;;;;;;;4.63;3.38;;;22.80;35.40;;;;;;5098212;28;20092;-74
2022/01/09 09:48:20;;;;;;;5.53;3.95;;;22.70;35.40;;;;;;5098665;28;20044;-74
2022/01/09 09:50:46;;;;;;;8.57;3.80;;;22.70;35.10;;;;;;5098678;28;20131;-74
2022/01/09 09:53:13;;;;;;;5.60;4.20;;;22.70;34.90;;;;;;5098989;28;20052;-74
2022/01/09 09:55:41;;;;;;;5.57;4.03;;;22.60;35.60;;;;;;5098112;28;20067;-74
2022/01/09 09:58:07;;;;;;;4.47;3.83;;;22.70;34.80;;;;;;5098691;28;20050;-75
2022/01/09 10:00:33;;;;;;;6.68;3.63;;;22.80;34.70;;;;;;5098855;28;20101;-74
2022/01/09 10:03:01;;;;;;;6.22;4.10;;;22.70;34.20;;;;;;5099160;28;20040;-74
2022/01/09 10:05:38;;;;;;;5.45;4.15;;;22.80;34.10;;;;;;5096489;28;20103;-75
2022/01/09 10:08:07;;;;;;;4.80;4.03;;;22.90;35.10;;;;;;5098564;28;20072;-74
2022/01/09 10:10:34;;;;;;;4.18;3.47;;;22.70;35.50;;;;;;5097861;28;20055;-73
2022/01/09 10:13:13;;;;;;;4.40;3.42;;;22.70;34.00;;;;;;5098505;28;20068;-74
2022/01/09 10:15:49;;;;;;;5.35;3.92;;;22.70;34.10;;;;;;5098735;28;20048;-75
2022/01/09 10:18:45;;;;;;;4.25;3.42;;;22.80;34.20;;;;;;5098309;28;20040;-74
2022/01/09 10:21:16;;;;;;;4.20;3.47;;;22.70;34.00;;;;;;5098348;28;20035;-74
2022/01/09 10:24:03;;;;;;;5.20;3.15;;;22.70;35.90;;;;;;5079488;28;20052;-76
2022/01/09 10:26:31;;;;;;;3.33;2.22;;;22.80;36.80;;;;;;5094524;28;20028;-75
2022/01/09 10:28:57;;;;;;;7.30;2.47;;;22.90;37.20;;;;;;5099513;28;20200;-75
2022/01/09 10:31:23;;;;;;;3.60;2.38;;;22.90;36.50;;;;;;5097651;28;20056;-74
2022/01/09 10:34:06;;;;;;;5.88;3.00;;;22.90;38.60;;;;;;5097058;28;20043;-76
2022/01/09 10:36:36;;;;;;;2.23;2.03;;;23.00;37.40;;;;;;5097355;28;20048;-74
2022/01/09 10:39:12;;;;;;;5.65;3.17;;;23.10;41.10;;;;;;5097598;28;20269;-74
2022/01/09 10:41:58;;;;;;;6.88;2.20;;;23.10;38.80;;;;;;5096940;28;20040;-77
2022/01/09 10:44:34;;;;;;;8.30;2.53;;;23.10;42.30;;;;;;5096912;28;20033;-72
2022/01/09 10:47:12;;;;;;;5.63;2.13;;;23.20;37.80;;;;;;5091990;28;20037;-72
2022/01/09 10:49:39;;;;;;;5.35;2.53;;;23.20;37.50;;;;;;5099509;28;20063;-74
2022/01/09 10:52:18;;;;;;;4.18;2.65;;;23.20;36.30;;;;;;5097524;28;20073;-71
2022/01/09 10:54:49;;;;;;;3.05;2.40;;;23.40;39.90;;;;;;5096586;28;20041;-70
2022/01/09 10:57:20;;;;;;;4.60;3.20;;;23.40;39.30;;;;;;5079394;28;20028;-69
2022/01/09 10:59:47;;;;;;;5.47;3.28;;;23.50;43.00;;;;;;5097542;28;20036;-73
2022/01/09 11:02:13;;;;;;;5.50;3.15;;;23.70;46.60;;;;;;5096893;28;20048;-74
2022/01/09 11:04:48;;;;;;;5.03;2.80;;;23.80;43.20;;;;;;5097647;28;20047;-74
2022/01/09 11:07:15;;;;;;;4.25;2.88;;;24.10;38.70;;;;;;5097279;28;20052;-74
2022/01/09 11:09:49;;;;;;;6.00;3.90;;;24.00;35.60;;;;;;5097512;28;20044;-75
2022/01/09 11:12:20;;;;;;;4.68;3.47;;;24.10;46.20;;;;;;5096799;28;20036;-75
2022/01/09 11:14:48;;;;;;;3.55;3.15;;;24.10;46.90;;;;;;5098836;28;20051;-73
2022/01/09 11:17:17;;;;;;;4.60;4.07;;;24.10;47.30;;;;;;5099010;28;20100;-75
2022/01/09 11:19:43;;;;;;;6.68;4.63;;;24.00;47.80;;;;;;5079689;28;20045;-74
2022/01/09 11:22:12;;;;;;;6.03;4.50;;;24.00;48.10;;;;;;5097009;28;20048;-72
2022/01/09 11:25:28;;;;;;;5.55;4.03;;;23.90;48.80;;;;;;5096674;28;20063;-72
2022/01/09 11:27:54;;;;;;;5.93;4.30;;;23.90;49.00;;;;;;5045683;28;20084;-75
2022/01/09 11:30:25;;;;;;;6.70;5.03;;;23.80;49.40;;;;;;5097050;28;20051;-75
2022/01/09 11:33:14;;;;;;;7.97;4.53;;;23.60;50.00;;;;;;5096895;28;20103;-75
2022/01/09 11:35:43;;;;;;;5.32;4.30;;;23.60;50.70;;;;;;5096986;28;20032;-75
2022/01/09 11:38:36;;;;;;;6.38;3.67;;;23.50;51.10;;;;;;5097182;28;20044;-76
2022/01/09 11:41:24;;;;;;;6.97;3.97;;;23.30;51.20;;;;;;5097070;28;20036;-77
2022/01/09 11:43:55;;;;;;;6.85;4.22;;;23.40;51.70;;;;;;5096610;28;20068;-76
2022/01/09 11:46:22;;;;;;;7.43;3.60;;;23.40;52.00;;;;;;5096243;28;20025;-74
2022/01/09 11:48:51;;;;;;;8.18;4.45;;;23.30;52.50;;;;;;5096938;28;20043;-75
2022/01/09 11:51:46;;;;;;;9.10;5.10;;;23.40;53.10;;;;;;5096751;28;20035;-75
2022/01/09 11:54:17;;;;;;;5.65;4.43;;;23.40;53.30;;;;;;5092951;28;20040;-75
2022/01/09 11:57:06;;;;;;;7.38;3.97;;;23.40;53.30;;;;;;5096710;28;20023;-75
2022/01/09 11:59:38;;;;;;;4.25;3.15;;;23.40;53.70;;;;;;5096163;28;20096;-75
2022/01/09 12:02:11;;;;;;;5.63;4.07;;;23.30;53.80;;;;;;5091374;28;20051;-77
2022/01/09 12:04:42;;;;;;;8.25;5.22;;;23.30;53.30;;;;;;5095968;28;20037;-75
2022/01/09 12:07:11;;;;;;;8.50;4.15;;;23.50;52.90;;;;;;5095679;28;20040;-74
2022/01/09 12:09:40;;;;;;;5.72;3.90;;;23.30;53.40;;;;;;5095850;28;20044;-75
2022/01/09 12:12:09;;;;;;;7.80;4.95;;;23.30;53.30;;;;;;5075773;28;20104;-75
2022/01/09 12:14:44;;;;;;;3.80;3.42;;;23.40;52.70;;;;;;5095358;28;20028;-76
2022/01/09 12:17:22;;;;;;;4.80;3.58;;;23.50;53.10;;;;;;5096132;28;20092;-75
2022/01/09 12:20:24;;;;;;;6.15;4.18;;;23.40;52.80;;;;;;5096085;28;20041;-76
2022/01/09 12:23:00;;;;;;;7.65;3.88;;;23.40;52.80;;;;;;5096090;28;20036;-78
2022/01/09 12:25:35;;;;;;;4.80;3.92;;;23.50;52.90;;;;;;5095751;28;20096;-78
2022/01/09 12:28:10;;;;;;;5.05;3.70;;;23.50;53.10;;;;;;5094986;28;20051;-79
2022/01/09 12:30:38;;;;;;;7.47;4.78;;;23.50;53.00;;;;;;5095668;28;20060;-80
2022/01/09 12:33:16;;;;;;;5.70;4.38;;;23.40;52.50;;;;;;5078136;28;20119;-80
2022/01/09 12:35:46;;;;;;;6.50;4.63;;;23.30;51.70;;;;;;5096197;28;20129;-81
2022/01/09 12:38:20;;;;;;;5.45;3.92;;;23.40;51.80;;;;;;5095735;28;20041;-80
2022/01/09 12:40:54;;;;;;;7.60;5.10;;;23.30;52.20;;;;;;5095675;28;20055;-82
2022/01/09 12:43:25;;;;;;;8.15;4.68;;;23.40;52.20;;;;;;5061569;28;20442;-78
2022/01/09 12:45:52;;;;;;;7.28;4.45;;;23.20;53.40;;;;;;5094842;28;20107;-76
2022/01/09 12:48:21;;;;;;;9.10;6.35;;;23.40;54.90;;;;;;5095726;28;20060;-77
2022/01/09 12:50:48;;;;;;;7.75;4.93;;;23.20;55.00;;;;;;5095133;28;20045;-78
2022/01/09 12:53:17;;;;;;;5.55;3.78;;;23.20;55.00;;;;;;5095408;28;20055;-78
2022/01/09 12:56:04;;;;;;;8.57;4.78;;;23.20;55.00;;;;;;5095861;28;20105;-77